sensor_id;sensor_type;location;lat;lon;timestamp;pressure;altitude;pressure_sealevel;temperature;humidity
35892;BME280;21993;42.672;23.296;2023-02-15T00:01:05;95913.84;;;5.06;62.44
35892;BME280;21993;42.672;23.296;2023-02-15T00:03:30;95905.22;;;5.04;62.98
35892;BME280;21993;42.672;23.296;2023-02-15T00:05:57;95921.34;;;4.93;62.72
35892;BME280;21993;42.672;23.296;2023-02-15T00:08:22;95925.66;;;4.75;62.83
35892;BME280;21993;42.672;23.296;2023-02-15T00:10:48;95928.41;;;4.72;64.04
35892;BME280;21993;42.672;23.296;2023-02-15T00:13:13;95924.47;;;4.83;63.05
35892;BME280;21993;42.672;23.296;2023-02-15T00:15:38;95930.59;;;4.82;63.50
35892;BME280;21993;42.672;23.296;2023-02-15T00:18:04;95929.25;;;4.73;64.08
35892;BME280;21993;42.672;23.296;2023-02-15T00:20:29;95932.78;;;4.72;64.13
35892;BME280;21993;42.672;23.296;2023-02-15T00:22:55;95931.22;;;4.68;64.50
35892;BME280;21993;42.672;23.296;2023-02-15T00:25:20;95939.16;;;4.65;63.96
35892;BME280;21993;42.672;23.296;2023-02-15T00:27:45;95922.22;;;4.75;63.42
35892;BME280;21993;42.672;23.296;2023-02-15T00:30:11;95940.22;;;4.79;63.37
35892;BME280;21993;42.672;23.296;2023-02-15T00:32:37;95935.88;;;4.80;63.86
35892;BME280;21993;42.672;23.296;2023-02-15T00:35:02;95936.72;;;4.80;62.98
35892;BME280;21993;42.672;23.296;2023-02-15T00:37:27;95942.88;;;4.78;64.15
35892;BME280;21993;42.672;23.296;2023-02-15T00:39:53;95937.75;;;4.58;64.40
35892;BME280;21993;42.672;23.296;2023-02-15T00:42:18;95939.00;;;4.68;63.94
35892;BME280;21993;42.672;23.296;2023-02-15T00:44:43;95937.81;;;4.75;63.64
35892;BME280;21993;42.672;23.296;2023-02-15T00:47:09;95944.03;;;4.72;64.08
35892;BME280;21993;42.672;23.296;2023-02-15T00:49:34;95930.78;;;4.77;63.33
35892;BME280;21993;42.672;23.296;2023-02-15T00:52:00;95930.78;;;4.77;64.22
35892;BME280;21993;42.672;23.296;2023-02-15T00:54:25;95929.19;;;4.74;63.54
35892;BME280;21993;42.672;23.296;2023-02-15T00:56:51;95933.69;;;4.71;64.27
35892;BME280;21993;42.672;23.296;2023-02-15T00:59:16;95936.75;;;4.60;64.63
35892;BME280;21993;42.672;23.296;2023-02-15T01:01:41;95930.88;;;4.75;63.92
35892;BME280;21993;42.672;23.296;2023-02-15T01:04:07;95929.03;;;4.77;63.77
35892;BME280;21993;42.672;23.296;2023-02-15T01:06:32;95927.72;;;4.88;63.07
35892;BME280;21993;42.672;23.296;2023-02-15T01:08:58;95931.09;;;4.90;64.14
35892;BME280;21993;42.672;23.296;2023-02-15T01:11:23;95930.22;;;4.70;63.87
35892;BME280;21993;42.672;23.296;2023-02-15T01:13:54;95924.25;;;4.68;64.46
35892;BME280;21993;42.672;23.296;2023-02-15T01:16:21;95924.81;;;4.75;64.61
35892;BME280;21993;42.672;23.296;2023-02-15T01:18:46;95921.09;;;4.80;64.14
35892;BME280;21993;42.672;23.296;2023-02-15T01:21:13;95923.97;;;4.74;63.39
35892;BME280;21993;42.672;23.296;2023-02-15T01:23:40;95931.72;;;4.57;64.34
35892;BME280;21993;42.672;23.296;2023-02-15T01:26:06;95922.66;;;4.66;64.48
35892;BME280;21993;42.672;23.296;2023-02-15T01:28:32;95923.28;;;4.71;63.65
35892;BME280;21993;42.672;23.296;2023-02-15T01:30:58;95914.91;;;4.64;63.95
35892;BME280;21993;42.672;23.296;2023-02-15T01:33:24;95922.56;;;4.67;64.61
35892;BME280;21993;42.672;23.296;2023-02-15T01:35:56;95920.53;;;4.74;64.56
35892;BME280;21993;42.672;23.296;2023-02-15T01:38:21;95917.78;;;4.77;63.69
35892;BME280;21993;42.672;23.296;2023-02-15T01:40:46;95908.66;;;4.68;64.00
35892;BME280;21993;42.672;23.296;2023-02-15T01:43:15;95906.03;;;4.68;64.87
35892;BME280;21993;42.672;23.296;2023-02-15T01:45:40;95909.72;;;4.64;64.52
35892;BME280;21993;42.672;23.296;2023-02-15T01:48:26;95907.13;;;4.64;64.01
35892;BME280;21993;42.672;23.296;2023-02-15T01:50:55;95896.78;;;4.63;64.50
35892;BME280;21993;42.672;23.296;2023-02-15T01:53:33;95897.06;;;4.57;64.21
35892;BME280;21993;42.672;23.296;2023-02-15T01:56:03;95896.56;;;4.67;64.72
35892;BME280;21993;42.672;23.296;2023-02-15T01:58:32;95894.88;;;4.66;64.31
35892;BME280;21993;42.672;23.296;2023-02-15T02:01:00;95891.78;;;4.58;64.89
35892;BME280;21993;42.672;23.296;2023-02-15T02:06:25;95895.47;;;4.54;64.85
35892;BME280;21993;42.672;23.296;2023-02-15T02:08:52;95898.31;;;4.48;65.13
35892;BME280;21993;42.672;23.296;2023-02-15T02:11:18;95899.78;;;4.53;64.54
35892;BME280;21993;42.672;23.296;2023-02-15T02:13:44;95892.22;;;4.49;65.11
35892;BME280;21993;42.672;23.296;2023-02-15T02:35:22;95912.66;;;4.38;65.26
35892;BME280;21993;42.672;23.296;2023-02-15T02:37:58;95908.34;;;4.37;65.93
35892;BME280;21993;42.672;23.296;2023-02-15T02:43:21;95914.53;;;4.34;66.67
35892;BME280;21993;42.672;23.296;2023-02-15T02:46:20;95913.09;;;4.47;65.85
35892;BME280;21993;42.672;23.296;2023-02-15T02:48:48;95915.47;;;4.52;64.96
35892;BME280;21993;42.672;23.296;2023-02-15T02:51:14;95909.34;;;4.53;64.86
35892;BME280;21993;42.672;23.296;2023-02-15T02:53:50;95912.06;;;4.31;66.28
35892;BME280;21993;42.672;23.296;2023-02-15T02:56:30;95916.03;;;4.40;66.31
35892;BME280;21993;42.672;23.296;2023-02-15T02:59:15;95920.44;;;4.38;65.29
35892;BME280;21993;42.672;23.296;2023-02-15T03:01:48;95916.13;;;4.37;65.77
35892;BME280;21993;42.672;23.296;2023-02-15T03:04:19;95926.94;;;4.48;66.03
35892;BME280;21993;42.672;23.296;2023-02-15T03:06:58;95916.09;;;4.38;66.05
35892;BME280;21993;42.672;23.296;2023-02-15T03:09:29;95930.84;;;4.38;65.95
35892;BME280;21993;42.672;23.296;2023-02-15T03:12:00;95935.63;;;4.47;66.21
35892;BME280;21993;42.672;23.296;2023-02-15T03:14:27;95930.03;;;4.56;65.71
35892;BME280;21993;42.672;23.296;2023-02-15T03:16:54;95937.66;;;4.59;65.24
35892;BME280;21993;42.672;23.296;2023-02-15T03:19:31;95936.16;;;4.35;65.50
35892;BME280;21993;42.672;23.296;2023-02-15T03:22:06;95929.78;;;4.42;66.03
35892;BME280;21993;42.672;23.296;2023-02-15T03:27:24;95938.66;;;4.57;65.80
35892;BME280;21993;42.672;23.296;2023-02-15T03:29:53;95934.72;;;4.48;65.77
35892;BME280;21993;42.672;23.296;2023-02-15T03:32:21;95930.13;;;4.53;66.19
35892;BME280;21993;42.672;23.296;2023-02-15T03:34:48;95930.59;;;4.63;66.01
35892;BME280;21993;42.672;23.296;2023-02-15T03:39:48;95943.19;;;4.72;64.76
35892;BME280;21993;42.672;23.296;2023-02-15T03:42:21;95926.22;;;4.63;65.25
35892;BME280;21993;42.672;23.296;2023-02-15T03:47:19;95925.94;;;4.69;65.07
35892;BME280;21993;42.672;23.296;2023-02-15T03:52:12;95924.75;;;4.58;65.70
35892;BME280;21993;42.672;23.296;2023-02-15T03:54:40;95928.00;;;4.63;65.32
35892;BME280;21993;42.672;23.296;2023-02-15T03:57:23;95930.88;;;4.75;65.66
35892;BME280;21993;42.672;23.296;2023-02-15T04:00:21;95930.28;;;4.69;64.92
35892;BME280;21993;42.672;23.296;2023-02-15T04:05:40;95935.78;;;4.63;65.09
35892;BME280;21993;42.672;23.296;2023-02-15T04:08:06;95929.19;;;4.74;65.65
35892;BME280;21993;42.672;23.296;2023-02-15T04:10:32;95932.63;;;4.75;65.67
35892;BME280;21993;42.672;23.296;2023-02-15T04:13:16;95949.06;;;4.75;65.61
35892;BME280;21993;42.672;23.296;2023-02-15T04:15:41;95940.28;;;4.78;65.34
35892;BME280;21993;42.672;23.296;2023-02-15T04:18:25;95947.66;;;4.68;65.91
35892;BME280;21993;42.672;23.296;2023-02-15T04:21:09;95949.00;;;4.77;65.38
35892;BME280;21993;42.672;23.296;2023-02-15T04:23:53;95959.69;;;4.71;65.21
35892;BME280;21993;42.672;23.296;2023-02-15T04:26:37;95954.34;;;4.74;65.95
35892;BME280;21993;42.672;23.296;2023-02-15T04:29:02;95963.84;;;4.75;65.34
35892;BME280;21993;42.672;23.296;2023-02-15T04:31:27;95973.88;;;4.83;65.94
35892;BME280;21993;42.672;23.296;2023-02-15T04:33:53;95979.78;;;4.86;65.90
35892;BME280;21993;42.672;23.296;2023-02-15T04:36:18;95976.16;;;4.90;65.03
35892;BME280;21993;42.672;23.296;2023-02-15T04:38:43;95977.91;;;4.90;65.64
35892;BME280;21993;42.672;23.296;2023-02-15T04:41:09;95971.44;;;4.98;65.28
35892;BME280;21993;42.672;23.296;2023-02-15T04:43:36;95970.03;;;4.91;65.41
35892;BME280;21993;42.672;23.296;2023-02-15T04:46:01;95969.75;;;4.97;65.39
35892;BME280;21993;42.672;23.296;2023-02-15T04:48:27;95980.34;;;4.93;65.69
35892;BME280;21993;42.672;23.296;2023-02-15T04:50:52;95960.25;;;4.77;66.44
35892;BME280;21993;42.672;23.296;2023-02-15T04:53:18;95967.91;;;4.80;66.08
35892;BME280;21993;42.672;23.296;2023-02-15T04:55:43;95975.72;;;4.80;66.02
35892;BME280;21993;42.672;23.296;2023-02-15T04:58:09;95982.25;;;4.89;65.44
35892;BME280;21993;42.672;23.296;2023-02-15T05:00:34;95976.75;;;4.95;65.00
35892;BME280;21993;42.672;23.296;2023-02-15T05:02:59;95983.78;;;4.74;66.33
35892;BME280;21993;42.672;23.296;2023-02-15T05:05:25;95985.63;;;4.72;66.58
35892;BME280;21993;42.672;23.296;2023-02-15T05:07:50;95983.47;;;4.62;66.02
35892;BME280;21993;42.672;23.296;2023-02-15T05:10:16;95976.66;;;4.79;65.63
35892;BME280;21993;42.672;23.296;2023-02-15T05:12:41;95993.50;;;4.90;66.05
35892;BME280;21993;42.672;23.296;2023-02-15T05:15:07;95990.34;;;4.83;65.59
35892;BME280;21993;42.672;23.296;2023-02-15T05:17:32;96000.66;;;4.85;66.25
35892;BME280;21993;42.672;23.296;2023-02-15T05:19:58;95989.50;;;4.64;66.54
35892;BME280;21993;42.672;23.296;2023-02-15T05:22:24;95991.09;;;4.66;66.72
35892;BME280;21993;42.672;23.296;2023-02-15T05:24:49;95990.84;;;4.72;66.20
35892;BME280;21993;42.672;23.296;2023-02-15T05:27:33;96004.00;;;4.88;66.33
35892;BME280;21993;42.672;23.296;2023-02-15T05:30:17;95995.41;;;4.86;65.92
35892;BME280;21993;42.672;23.296;2023-02-15T05:32:43;96003.69;;;4.94;66.17
35892;BME280;21993;42.672;23.296;2023-02-15T05:35:13;96016.19;;;4.86;66.06
35892;BME280;21993;42.672;23.296;2023-02-15T05:37:39;96016.69;;;4.94;65.33
35892;BME280;21993;42.672;23.296;2023-02-15T05:40:05;96019.72;;;5.04;64.85
35892;BME280;21993;42.672;23.296;2023-02-15T05:42:31;96019.38;;;4.93;65.52
35892;BME280;21993;42.672;23.296;2023-02-15T05:44:56;96016.63;;;4.96;65.59
35892;BME280;21993;42.672;23.296;2023-02-15T05:47:21;96020.59;;;5.04;64.89
35892;BME280;21993;42.672;23.296;2023-02-15T05:49:47;96021.63;;;5.00;64.98
35892;BME280;21993;42.672;23.296;2023-02-15T05:52:12;96016.44;;;5.00;65.69
35892;BME280;21993;42.672;23.296;2023-02-15T05:54:38;96022.06;;;5.10;65.27
35892;BME280;21993;42.672;23.296;2023-02-15T05:57:03;96020.44;;;4.89;65.47
35892;BME280;21993;42.672;23.296;2023-02-15T05:59:28;96024.66;;;4.91;65.99
35892;BME280;21993;42.672;23.296;2023-02-15T06:01:54;96027.25;;;4.91;65.03
35892;BME280;21993;42.672;23.296;2023-02-15T06:04:19;96020.78;;;5.00;65.49
35892;BME280;21993;42.672;23.296;2023-02-15T06:06:44;96030.28;;;5.01;65.11
35892;BME280;21993;42.672;23.296;2023-02-15T06:09:11;96028.25;;;5.07;64.92
35892;BME280;21993;42.672;23.296;2023-02-15T06:11:37;96024.81;;;5.07;65.32
35892;BME280;21993;42.672;23.296;2023-02-15T06:14:03;96018.84;;;5.05;64.79
35892;BME280;21993;42.672;23.296;2023-02-15T06:16:29;96025.22;;;4.98;65.54
35892;BME280;21993;42.672;23.296;2023-02-15T06:18:54;96028.19;;;4.90;65.96
35892;BME280;21993;42.672;23.296;2023-02-15T06:21:19;96017.69;;;4.92;65.56
35892;BME280;21993;42.672;23.296;2023-02-15T06:23:45;96025.16;;;4.99;65.53
35892;BME280;21993;42.672;23.296;2023-02-15T06:26:10;96022.91;;;5.11;64.90
35892;BME280;21993;42.672;23.296;2023-02-15T06:28:36;96035.56;;;5.18;64.67
35892;BME280;21993;42.672;23.296;2023-02-15T06:31:02;96038.16;;;5.18;64.79
35892;BME280;21993;42.672;23.296;2023-02-15T06:33:28;96023.97;;;5.25;64.78
35892;BME280;21993;42.672;23.296;2023-02-15T06:35:55;96027.25;;;5.29;64.61
35892;BME280;21993;42.672;23.296;2023-02-15T06:38:22;96020.88;;;5.17;64.41
35892;BME280;21993;42.672;23.296;2023-02-15T06:40:47;96023.28;;;5.22;64.40
35892;BME280;21993;42.672;23.296;2023-02-15T06:43:13;96022.19;;;5.26;64.30
35892;BME280;21993;42.672;23.296;2023-02-15T06:45:38;96022.88;;;5.29;63.94
35892;BME280;21993;42.672;23.296;2023-02-15T06:48:04;96029.88;;;5.48;63.77
35892;BME280;21993;42.672;23.296;2023-02-15T06:50:32;96024.94;;;5.42;63.66
35892;BME280;21993;42.672;23.296;2023-02-15T06:52:58;96027.38;;;5.45;63.04
35892;BME280;21993;42.672;23.296;2023-02-15T06:55:23;96026.13;;;5.34;63.15
35892;BME280;21993;42.672;23.296;2023-02-15T06:57:49;96033.59;;;5.23;63.80
35892;BME280;21993;42.672;23.296;2023-02-15T07:00:14;96021.28;;;5.08;64.56
35892;BME280;21993;42.672;23.296;2023-02-15T07:02:40;96027.84;;;5.17;63.86
35892;BME280;21993;42.672;23.296;2023-02-15T07:05:05;96028.09;;;5.29;63.83
35892;BME280;21993;42.672;23.296;2023-02-15T07:07:30;96030.34;;;5.37;62.93
35892;BME280;21993;42.672;23.296;2023-02-15T07:09:56;96029.91;;;5.46;63.20
35892;BME280;21993;42.672;23.296;2023-02-15T07:12:21;96027.25;;;5.48;63.30
35892;BME280;21993;42.672;23.296;2023-02-15T07:15:05;96024.69;;;5.65;62.49
35892;BME280;21993;42.672;23.296;2023-02-15T07:17:31;96025.97;;;5.56;62.70
35892;BME280;21993;42.672;23.296;2023-02-15T07:19:56;96029.50;;;5.55;62.34
35892;BME280;21993;42.672;23.296;2023-02-15T07:22:22;96034.56;;;5.58;62.51
35892;BME280;21993;42.672;23.296;2023-02-15T07:24:47;96035.41;;;5.59;62.27
35892;BME280;21993;42.672;23.296;2023-02-15T07:27:14;96029.66;;;5.70;61.60
35892;BME280;21993;42.672;23.296;2023-02-15T07:29:39;96037.72;;;5.65;61.42
35892;BME280;21993;42.672;23.296;2023-02-15T07:32:05;96032.06;;;5.74;61.97
35892;BME280;21993;42.672;23.296;2023-02-15T07:34:30;96027.59;;;5.95;60.96
35892;BME280;21993;42.672;23.296;2023-02-15T07:36:55;96023.22;;;5.96;60.68
35892;BME280;21993;42.672;23.296;2023-02-15T07:39:21;96026.00;;;5.92;61.25
35892;BME280;21993;42.672;23.296;2023-02-15T07:41:46;96021.78;;;6.07;60.65
35892;BME280;21993;42.672;23.296;2023-02-15T07:44:13;96018.72;;;6.16;60.14
35892;BME280;21993;42.672;23.296;2023-02-15T07:46:39;96017.03;;;5.98;60.68
35892;BME280;21993;42.672;23.296;2023-02-15T07:49:04;96020.13;;;6.06;60.12
35892;BME280;21993;42.672;23.296;2023-02-15T07:51:29;96012.88;;;6.11;60.50
35892;BME280;21993;42.672;23.296;2023-02-15T07:53:55;96011.97;;;6.12;60.52
35892;BME280;21993;42.672;23.296;2023-02-15T07:56:20;96020.72;;;6.29;59.95
35892;BME280;21993;42.672;23.296;2023-02-15T07:58:45;96015.03;;;6.20;60.16
35892;BME280;21993;42.672;23.296;2023-02-15T08:03:49;96017.13;;;6.31;59.60
35892;BME280;21993;42.672;23.296;2023-02-15T08:06:15;96027.00;;;6.42;59.51
35892;BME280;21993;42.672;23.296;2023-02-15T08:08:41;96019.25;;;6.40;59.45
35892;BME280;21993;42.672;23.296;2023-02-15T08:11:23;96011.59;;;6.20;60.23
35892;BME280;21993;42.672;23.296;2023-02-15T08:14:01;96022.19;;;6.17;60.07
35892;BME280;21993;42.672;23.296;2023-02-15T08:16:35;96021.03;;;6.23;59.99
35892;BME280;21993;42.672;23.296;2023-02-15T08:19:13;96026.25;;;6.40;59.49
35892;BME280;21993;42.672;23.296;2023-02-15T08:21:44;96029.22;;;6.49;58.82
35892;BME280;21993;42.672;23.296;2023-02-15T08:24:11;96019.53;;;6.52;58.96
35892;BME280;21993;42.672;23.296;2023-02-15T08:26:38;96022.81;;;6.55;58.40
35892;BME280;21993;42.672;23.296;2023-02-15T08:29:04;96028.13;;;6.54;58.76
35892;BME280;21993;42.672;23.296;2023-02-15T08:31:30;96030.38;;;6.44;58.50
35892;BME280;21993;42.672;23.296;2023-02-15T08:33:56;96028.00;;;6.57;58.47
35892;BME280;21993;42.672;23.296;2023-02-15T08:36:27;96018.44;;;6.73;58.07
35892;BME280;21993;42.672;23.296;2023-02-15T08:38:54;96025.97;;;6.62;58.26
35892;BME280;21993;42.672;23.296;2023-02-15T08:41:28;96020.09;;;6.58;58.43
35892;BME280;21993;42.672;23.296;2023-02-15T08:43:56;96025.75;;;6.66;57.74
35892;BME280;21993;42.672;23.296;2023-02-15T08:46:24;96024.13;;;6.81;57.88
35892;BME280;21993;42.672;23.296;2023-02-15T08:48:50;96032.13;;;6.94;57.09
35892;BME280;21993;42.672;23.296;2023-02-15T08:51:24;96034.06;;;6.90;57.05
35892;BME280;21993;42.672;23.296;2023-02-15T08:53:55;96035.78;;;6.74;57.17
35892;BME280;21993;42.672;23.296;2023-02-15T08:56:24;96033.94;;;6.76;57.30
35892;BME280;21993;42.672;23.296;2023-02-15T08:58:51;96026.78;;;6.80;56.96
35892;BME280;21993;42.672;23.296;2023-02-15T09:01:20;96029.47;;;6.78;57.12
35892;BME280;21993;42.672;23.296;2023-02-15T09:03:47;96028.09;;;6.71;57.65
35892;BME280;21993;42.672;23.296;2023-02-15T09:06:14;96035.88;;;6.88;56.32
35892;BME280;21993;42.672;23.296;2023-02-15T09:08:39;96040.47;;;7.00;56.11
35892;BME280;21993;42.672;23.296;2023-02-15T09:13:49;96033.22;;;7.05;56.35
35892;BME280;21993;42.672;23.296;2023-02-15T09:16:15;96032.66;;;7.00;56.49
35892;BME280;21993;42.672;23.296;2023-02-15T09:18:42;96036.28;;;6.98;56.14
35892;BME280;21993;42.672;23.296;2023-02-15T09:21:13;96023.81;;;7.19;55.58
35892;BME280;21993;42.672;23.296;2023-02-15T09:23:40;96024.75;;;7.18;55.63
35892;BME280;21993;42.672;23.296;2023-02-15T09:26:08;96036.78;;;7.20;55.47
35892;BME280;21993;42.672;23.296;2023-02-15T09:28:34;96028.13;;;7.20;55.65
35892;BME280;21993;42.672;23.296;2023-02-15T09:31:16;96032.16;;;7.10;56.37
35892;BME280;21993;42.672;23.296;2023-02-15T09:33:43;96027.13;;;7.07;56.43
35892;BME280;21993;42.672;23.296;2023-02-15T09:38:40;96025.91;;;7.12;55.45
35892;BME280;21993;42.672;23.296;2023-02-15T09:44:14;96024.97;;;6.97;56.11
35892;BME280;21993;42.672;23.296;2023-02-15T09:47:01;96028.94;;;7.04;56.58
35892;BME280;21993;42.672;23.296;2023-02-15T09:49:37;96013.56;;;7.31;55.95
35892;BME280;21993;42.672;23.296;2023-02-15T10:23:50;96006.22;;;7.54;55.05
35892;BME280;21993;42.672;23.296;2023-02-15T10:29:44;96000.16;;;7.53;55.03
35892;BME280;21993;42.672;23.296;2023-02-15T10:32:23;95996.03;;;7.49;54.98
35892;BME280;21993;42.672;23.296;2023-02-15T10:35:01;95997.31;;;7.58;54.95
35892;BME280;21993;42.672;23.296;2023-02-15T10:37:45;95998.22;;;7.57;54.88
35892;BME280;21993;42.672;23.296;2023-02-15T10:46:17;95987.16;;;7.68;54.65
35892;BME280;21993;42.672;23.296;2023-02-15T10:51:12;95979.22;;;7.85;54.72
35892;BME280;21993;42.672;23.296;2023-02-15T10:56:59;95977.72;;;8.11;54.00
35892;BME280;21993;42.672;23.296;2023-02-15T11:02:36;95983.81;;;8.26;53.14
35892;BME280;21993;42.672;23.296;2023-02-15T11:05:16;95971.91;;;8.36;51.32
35892;BME280;21993;42.672;23.296;2023-02-15T11:07:47;95972.50;;;8.41;51.71
35892;BME280;21993;42.672;23.296;2023-02-15T11:13:04;95975.16;;;8.39;52.34
35892;BME280;21993;42.672;23.296;2023-02-15T11:15:36;95968.34;;;8.37;53.30
35892;BME280;21993;42.672;23.296;2023-02-15T11:20:56;95971.00;;;8.65;51.76
35892;BME280;21993;42.672;23.296;2023-02-15T11:23:24;95970.44;;;9.03;50.79
35892;BME280;21993;42.672;23.296;2023-02-15T11:25:57;95965.59;;;9.38;50.52
35892;BME280;21993;42.672;23.296;2023-02-15T11:28:37;95963.47;;;9.57;49.07
35892;BME280;21993;42.672;23.296;2023-02-15T11:31:22;95963.97;;;10.04;48.66
35892;BME280;21993;42.672;23.296;2023-02-15T11:34:04;95960.06;;;10.49;47.69
35892;BME280;21993;42.672;23.296;2023-02-15T11:36:39;95950.19;;;10.78;46.56
35892;BME280;21993;42.672;23.296;2023-02-15T11:39:12;95948.03;;;11.21;45.55
35892;BME280;21993;42.672;23.296;2023-02-15T11:41:43;95948.34;;;11.53;44.97
35892;BME280;21993;42.672;23.296;2023-02-15T11:46:43;95935.66;;;12.19;43.32
35892;BME280;21993;42.672;23.296;2023-02-15T11:49:32;95932.22;;;12.41;42.92
35892;BME280;21993;42.672;23.296;2023-02-15T11:52:02;95917.28;;;12.64;42.05
35892;BME280;21993;42.672;23.296;2023-02-15T11:54:34;95921.97;;;12.83;41.70
35892;BME280;21993;42.672;23.296;2023-02-15T11:57:33;95915.38;;;12.88;41.36
35892;BME280;21993;42.672;23.296;2023-02-15T12:00:10;95915.38;;;13.00;41.84
35892;BME280;21993;42.672;23.296;2023-02-15T12:02:43;95903.25;;;13.08;41.10
35892;BME280;21993;42.672;23.296;2023-02-15T12:05:14;95903.88;;;13.23;41.31
35892;BME280;21993;42.672;23.296;2023-02-15T12:07:46;95898.81;;;13.42;40.73
35892;BME280;21993;42.672;23.296;2023-02-15T12:10:26;95890.97;;;13.52;40.35
35892;BME280;21993;42.672;23.296;2023-02-15T12:13:15;95895.41;;;13.63;40.02
35892;BME280;21993;42.672;23.296;2023-02-15T12:15:43;95883.16;;;13.62;39.57
35892;BME280;21993;42.672;23.296;2023-02-15T12:18:26;95878.81;;;13.72;39.93
35892;BME280;21993;42.672;23.296;2023-02-15T12:21:02;95894.44;;;13.64;40.46
35892;BME280;21993;42.672;23.296;2023-02-15T12:23:28;95883.00;;;13.74;39.84
35892;BME280;21993;42.672;23.296;2023-02-15T12:25:56;95879.41;;;13.75;40.15
35892;BME280;21993;42.672;23.296;2023-02-15T12:28:37;95876.97;;;13.84;39.77
35892;BME280;21993;42.672;23.296;2023-02-15T12:31:09;95875.75;;;13.88;39.73
35892;BME280;21993;42.672;23.296;2023-02-15T12:33:45;95877.16;;;13.92;39.59
35892;BME280;21993;42.672;23.296;2023-02-15T12:38:38;95871.34;;;13.77;39.91
35892;BME280;21993;42.672;23.296;2023-02-15T12:41:26;95865.91;;;13.90;39.82
35892;BME280;21993;42.672;23.296;2023-02-15T12:44:17;95861.25;;;13.82;39.70
35892;BME280;21993;42.672;23.296;2023-02-15T12:47:01;95855.16;;;13.82;39.99
35892;BME280;21993;42.672;23.296;2023-02-15T12:49:34;95853.63;;;13.68;40.01
35892;BME280;21993;42.672;23.296;2023-02-15T12:52:02;95841.63;;;13.43;40.77
35892;BME280;21993;42.672;23.296;2023-02-15T12:54:34;95836.59;;;13.40;40.69
35892;BME280;21993;42.672;23.296;2023-02-15T12:57:31;95844.41;;;13.19;41.02
35892;BME280;21993;42.672;23.296;2023-02-15T13:00:02;95844.47;;;12.96;41.19
35892;BME280;21993;42.672;23.296;2023-02-15T13:05:16;95846.28;;;12.62;41.88
35892;BME280;21993;42.672;23.296;2023-02-15T13:07:53;95844.34;;;12.76;42.09
35892;BME280;21993;42.672;23.296;2023-02-15T13:12:54;95850.69;;;12.39;42.27
35892;BME280;21993;42.672;23.296;2023-02-15T13:15:44;95835.50;;;12.43;42.85
35892;BME280;21993;42.672;23.296;2023-02-15T13:18:17;95830.94;;;12.34;42.43
35892;BME280;21993;42.672;23.296;2023-02-15T13:20:46;95838.59;;;12.26;43.57
35892;BME280;21993;42.672;23.296;2023-02-15T13:23:32;95836.41;;;12.08;42.84
35892;BME280;21993;42.672;23.296;2023-02-15T13:25:59;95838.22;;;12.08;42.95
35892;BME280;21993;42.672;23.296;2023-02-15T13:28:39;95845.13;;;11.98;43.36
35892;BME280;21993;42.672;23.296;2023-02-15T13:31:13;95841.91;;;11.94;43.45
35892;BME280;21993;42.672;23.296;2023-02-15T13:33:46;95836.84;;;11.91;43.54
35892;BME280;21993;42.672;23.296;2023-02-15T13:41:52;95846.41;;;11.57;44.37
35892;BME280;21993;42.672;23.296;2023-02-15T13:44:41;95851.75;;;11.44;44.96
35892;BME280;21993;42.672;23.296;2023-02-15T13:52:19;95854.69;;;11.16;45.45
35892;BME280;21993;42.672;23.296;2023-02-15T13:54:59;95859.06;;;10.91;46.10
35892;BME280;21993;42.672;23.296;2023-02-15T14:05:24;95863.22;;;10.57;47.00
35892;BME280;21993;42.672;23.296;2023-02-15T14:07:56;95867.94;;;10.65;46.99
35892;BME280;21993;42.672;23.296;2023-02-15T14:18:55;95876.75;;;10.13;48.04
35892;BME280;21993;42.672;23.296;2023-02-15T14:21:34;95881.47;;;9.95;48.13
35892;BME280;21993;42.672;23.296;2023-02-15T14:24:15;95891.13;;;9.95;48.40
35892;BME280;21993;42.672;23.296;2023-02-15T14:27:07;95897.94;;;9.84;48.61
35892;BME280;21993;42.672;23.296;2023-02-15T14:32:30;95890.03;;;9.72;49.71
35892;BME280;21993;42.672;23.296;2023-02-15T14:34:59;95890.34;;;9.67;49.66
35892;BME280;21993;42.672;23.296;2023-02-15T14:37:45;95893.53;;;9.58;49.47
35892;BME280;21993;42.672;23.296;2023-02-15T14:40:34;95891.66;;;9.33;49.77
35892;BME280;21993;42.672;23.296;2023-02-15T14:48:49;95887.38;;;9.32;50.45
35892;BME280;21993;42.672;23.296;2023-02-15T14:56:42;95890.44;;;9.12;51.18
35892;BME280;21993;42.672;23.296;2023-02-15T14:59:22;95888.38;;;9.17;50.86
35892;BME280;21993;42.672;23.296;2023-02-15T15:07:28;95889.84;;;8.94;50.59
35892;BME280;21993;42.672;23.296;2023-02-15T15:12:42;95892.94;;;8.72;51.75
35892;BME280;21993;42.672;23.296;2023-02-15T15:15:32;95892.84;;;8.73;52.09
35892;BME280;21993;42.672;23.296;2023-02-15T15:18:09;95886.75;;;8.73;50.94
35892;BME280;21993;42.672;23.296;2023-02-15T15:37:19;95914.41;;;8.20;52.66
35892;BME280;21993;42.672;23.296;2023-02-15T15:50:53;95914.91;;;7.97;54.43
35892;BME280;21993;42.672;23.296;2023-02-15T15:53:23;95919.88;;;8.01;53.43
35892;BME280;21993;42.672;23.296;2023-02-15T15:55:54;95922.25;;;7.90;54.18
35892;BME280;21993;42.672;23.296;2023-02-15T15:58:21;95921.59;;;7.86;54.58
35892;BME280;21993;42.672;23.296;2023-02-15T16:00:50;95920.28;;;7.79;54.45
35892;BME280;21993;42.672;23.296;2023-02-15T16:03:22;95919.44;;;7.79;55.06
35892;BME280;21993;42.672;23.296;2023-02-15T16:05:48;95922.34;;;7.88;54.24
35892;BME280;21993;42.672;23.296;2023-02-15T16:08:36;95917.50;;;7.82;54.50
35892;BME280;21993;42.672;23.296;2023-02-15T16:11:12;95915.34;;;7.75;54.82
35892;BME280;21993;42.672;23.296;2023-02-15T16:13:41;95925.09;;;7.71;54.64
35892;BME280;21993;42.672;23.296;2023-02-15T16:16:07;95916.34;;;7.72;54.39
35892;BME280;21993;42.672;23.296;2023-02-15T16:18:32;95921.00;;;7.67;55.24
35892;BME280;21993;42.672;23.296;2023-02-15T16:21:04;95925.53;;;7.63;56.34
35892;BME280;21993;42.672;23.296;2023-02-15T16:28:52;95935.13;;;7.79;55.94
35892;BME280;21993;42.672;23.296;2023-02-15T16:31:18;95930.44;;;7.70;54.85